sensor_id;sensor_type;location;lat;lon;timestamp;P1;durP1;ratioP1;P2;durP2;ratioP2
24867;SDS011;12941;48.698;9.310;2023-09-12T00:00:56;10.7;;;7.5;;
24867;SDS011;12941;48.698;9.310;2023-09-12T00:02:01;10.7;;;7.5;;
24867;SDS011;12941;48.698;9.310;2023-09-12T00:03:01;10.7;;;6.7;;
24867;SDS011;12941;48.698;9.310;2023-09-12T00:04:01;10.7;;;6.7;;
24867;SDS011;12941;48.698;9.310;2023-09-12T00:05:01;10.7;;;6.7;;
24867;SDS011;12941;48.698;9.310;2023-09-12T00:06:02;10.7;;;6.7;;
24867;SDS011;12941;48.698;9.310;2023-09-12T00:07:06;10.7;;;6.7;;
24867;SDS011;12941;48.698;9.310;2023-09-12T00:08:06;10.5;;;7.2;;
24867;SDS011;12941;48.698;9.310;2023-09-12T00:09:11;10.5;;;7.2;;
24867;SDS011;12941;48.698;9.310;2023-09-12T00:10:16;10.5;;;7.2;;
24867;SDS011;12941;48.698;9.310;2023-09-12T00:11:16;10.5;;;7.2;;
24867;SDS011;12941;48.698;9.310;2023-09-12T00:12:16;10;;;7.3;;
24867;SDS011;12941;48.698;9.310;2023-09-12T00:13:16;10;;;7.3;;
24867;SDS011;12941;48.698;9.310;2023-09-12T00:14:21;10;;;7.3;;
24867;SDS011;12941;48.698;9.310;2023-09-12T00:15:26;10;;;7.3;;
24867;SDS011;12941;48.698;9.310;2023-09-12T00:16:26;10;;;7.3;;
24867;SDS011;12941;48.698;9.310;2023-09-12T00:17:31;9.9;;;7.2;;
24867;SDS011;12941;48.698;9.310;2023-09-12T00:18:31;9.9;;;7.2;;
24867;SDS011;12941;48.698;9.310;2023-09-12T00:19:36;9.9;;;7.2;;
24867;SDS011;12941;48.698;9.310;2023-09-12T00:20:36;9.9;;;7.2;;
24867;SDS011;12941;48.698;9.310;2023-09-12T00:21:41;9.9;;;7.2;;
24867;SDS011;12941;48.698;9.310;2023-09-12T00:22:41;10.7;;;7.1;;
24867;SDS011;12941;48.698;9.310;2023-09-12T00:23:46;10.7;;;7.1;;
24867;SDS011;12941;48.698;9.310;2023-09-12T00:24:51;10.7;;;7.1;;
24867;SDS011;12941;48.698;9.310;2023-09-12T00:25:51;10.7;;;7.1;;
24867;SDS011;12941;48.698;9.310;2023-09-12T00:26:51;10.7;;;7.1;;
24867;SDS011;12941;48.698;9.310;2023-09-12T00:27:56;10.1;;;7.5;;
24867;SDS011;12941;48.698;9.310;2023-09-12T00:29:01;10.1;;;7.5;;
24867;SDS011;12941;48.698;9.310;2023-09-12T00:30:02;10.1;;;7.5;;
24867;SDS011;12941;48.698;9.310;2023-09-12T00:31:01;10.1;;;7.5;;
24867;SDS011;12941;48.698;9.310;2023-09-12T00:32:01;10.1;;;7.5;;
24867;SDS011;12941;48.698;9.310;2023-09-12T00:33:06;8.6;;;7.3;;
24867;SDS011;12941;48.698;9.310;2023-09-12T00:34:06;8.6;;;7.3;;
24867;SDS011;12941;48.698;9.310;2023-09-12T00:35:06;8.6;;;7.3;;
24867;SDS011;12941;48.698;9.310;2023-09-12T00:36:06;8.6;;;7.3;;
24867;SDS011;12941;48.698;9.310;2023-09-12T00:37:11;9.4;;;7.1;;
24867;SDS011;12941;48.698;9.310;2023-09-12T00:38:11;9.2;;;7.1;;
24867;SDS011;12941;48.698;9.310;2023-09-12T00:39:11;9.2;;;7.1;;
24867;SDS011;12941;48.698;9.310;2023-09-12T00:40:11;9.2;;;7.1;;
24867;SDS011;12941;48.698;9.310;2023-09-12T00:41:16;9.2;;;7.1;;
24867;SDS011;12941;48.698;9.310;2023-09-12T00:42:16;10.9;;;6.8;;
24867;SDS011;12941;48.698;9.310;2023-09-12T00:43:17;10.9;;;6.8;;
24867;SDS011;12941;48.698;9.310;2023-09-12T00:44:21;10.9;;;6.8;;
24867;SDS011;12941;48.698;9.310;2023-09-12T00:45:27;10.9;;;6.8;;
24867;SDS011;12941;48.698;9.310;2023-09-12T00:46:27;10.9;;;6.8;;
24867;SDS011;12941;48.698;9.310;2023-09-12T00:47:32;9;;;6.9;;
24867;SDS011;12941;48.698;9.310;2023-09-12T00:48:31;9;;;6.9;;
24867;SDS011;12941;48.698;9.310;2023-09-12T00:49:32;9;;;6.9;;
24867;SDS011;12941;48.698;9.310;2023-09-12T00:50:36;9;;;6.9;;
24867;SDS011;12941;48.698;9.310;2023-09-12T00:51:41;9;;;6.9;;
24867;SDS011;12941;48.698;9.310;2023-09-12T00:52:42;10.2;;;6;;
24867;SDS011;12941;48.698;9.310;2023-09-12T00:53:47;10.2;;;6;;
24867;SDS011;12941;48.698;9.310;2023-09-12T00:54:47;10.2;;;6;;
24867;SDS011;12941;48.698;9.310;2023-09-12T00:55:54;10.2;;;6;;
24867;SDS011;12941;48.698;9.310;2023-09-12T00:56:51;10.2;;;6;;
24867;SDS011;12941;48.698;9.310;2023-09-12T00:57:51;9.5;;;6.4;;
24867;SDS011;12941;48.698;9.310;2023-09-12T00:58:51;9.5;;;6.4;;
24867;SDS011;12941;48.698;9.310;2023-09-12T00:59:52;9.5;;;6.4;;
24867;SDS011;12941;48.698;9.310;2023-09-12T01:00:52;9.5;;;6.4;;
24867;SDS011;12941;48.698;9.310;2023-09-12T01:01:57;9.5;;;6.4;;
24867;SDS011;12941;48.698;9.310;2023-09-12T01:03:02;9.6;;;6.6;;
24867;SDS011;12941;48.698;9.310;2023-09-12T01:04:02;9.6;;;6.6;;
24867;SDS011;12941;48.698;9.310;2023-09-12T01:05:02;9.6;;;6.6;;
24867;SDS011;12941;48.698;9.310;2023-09-12T01:06:07;9.6;;;6.6;;
24867;SDS011;12941;48.698;9.310;2023-09-12T01:07:12;12.5;;;7.3;;
24867;SDS011;12941;48.698;9.310;2023-09-12T01:08:12;12.5;;;7.3;;
24867;SDS011;12941;48.698;9.310;2023-09-12T01:09:12;12.5;;;7.3;;
24867;SDS011;12941;48.698;9.310;2023-09-12T01:10:17;12.5;;;7.3;;
24867;SDS011;12941;48.698;9.310;2023-09-12T01:11:22;12.5;;;7.3;;
24867;SDS011;12941;48.698;9.310;2023-09-12T01:12:22;11;;;7.5;;
24867;SDS011;12941;48.698;9.310;2023-09-12T01:13:22;11;;;7.5;;
24867;SDS011;12941;48.698;9.310;2023-09-12T01:14:27;11;;;7.5;;
24867;SDS011;12941;48.698;9.310;2023-09-12T01:15:27;11;;;7.5;;
24867;SDS011;12941;48.698;9.310;2023-09-12T01:16:27;11;;;7.5;;
24867;SDS011;12941;48.698;9.310;2023-09-12T01:17:32;11.9;;;7.5;;
24867;SDS011;12941;48.698;9.310;2023-09-12T01:18:32;11.9;;;7.5;;
24867;SDS011;12941;48.698;9.310;2023-09-12T01:19:32;11.9;;;7.5;;
24867;SDS011;12941;48.698;9.310;2023-09-12T01:20:37;11.9;;;7.5;;
24867;SDS011;12941;48.698;9.310;2023-09-12T01:21:53;11.9;;;7.5;;
24867;SDS011;12941;48.698;9.310;2023-09-12T01:22:56;12.2;;;7.8;;
24867;SDS011;12941;48.698;9.310;2023-09-12T01:23:55;12.2;;;7.8;;
24867;SDS011;12941;48.698;9.310;2023-09-12T01:24:56;12.2;;;7.8;;
24867;SDS011;12941;48.698;9.310;2023-09-12T01:26:01;12.2;;;7.8;;
24867;SDS011;12941;48.698;9.310;2023-09-12T01:26:59;12.2;;;7.8;;
24867;SDS011;12941;48.698;9.310;2023-09-12T01:28:02;9.8;;;7.2;;
24867;SDS011;12941;48.698;9.310;2023-09-12T01:29:07;9.8;;;7.2;;
24867;SDS011;12941;48.698;9.310;2023-09-12T01:30:12;9.8;;;7.2;;
24867;SDS011;12941;48.698;9.310;2023-09-12T01:31:12;9.8;;;7.2;;
24867;SDS011;12941;48.698;9.310;2023-09-12T01:32:13;9.4;;;6.9;;
24867;SDS011;12941;48.698;9.310;2023-09-12T01:33:17;9.4;;;6.9;;
24867;SDS011;12941;48.698;9.310;2023-09-12T01:34:17;9.4;;;6.9;;
24867;SDS011;12941;48.698;9.310;2023-09-12T01:35:17;9.4;;;6.9;;
24867;SDS011;12941;48.698;9.310;2023-09-12T01:36:22;9.4;;;6.9;;
24867;SDS011;12941;48.698;9.310;2023-09-12T01:37:27;8.4;;;7.1;;
24867;SDS011;12941;48.698;9.310;2023-09-12T01:38:27;8.4;;;7.1;;
24867;SDS011;12941;48.698;9.310;2023-09-12T01:39:32;8.4;;;7.1;;
24867;SDS011;12941;48.698;9.310;2023-09-12T01:40:38;8.4;;;7.1;;
24867;SDS011;12941;48.698;9.310;2023-09-12T01:41:42;8.4;;;7.1;;
24867;SDS011;12941;48.698;9.310;2023-09-12T01:42:47;10.4;;;7.7;;
24867;SDS011;12941;48.698;9.310;2023-09-12T01:43:52;10.4;;;7.7;;
24867;SDS011;12941;48.698;9.310;2023-09-12T01:44:57;10.4;;;7.7;;
24867;SDS011;12941;48.698;9.310;2023-09-12T01:46:02;10.4;;;7.7;;
24867;SDS011;12941;48.698;9.310;2023-09-12T01:47:07;10.4;;;7.7;;
24867;SDS011;12941;48.698;9.310;2023-09-12T01:48:12;11;;;7.5;;
24867;SDS011;12941;48.698;9.310;2023-09-12T01:49:12;11;;;7.5;;
24867;SDS011;12941;48.698;9.310;2023-09-12T01:50:17;11;;;7.5;;
24867;SDS011;12941;48.698;9.310;2023-09-12T01:51:22;11;;;7.5;;
24867;SDS011;12941;48.698;9.310;2023-09-12T01:52:22;12.3;;;7.2;;
24867;SDS011;12941;48.698;9.310;2023-09-12T01:53:22;12.3;;;7.2;;
24867;SDS011;12941;48.698;9.310;2023-09-12T01:54:27;12.3;;;7.2;;
24867;SDS011;12941;48.698;9.310;2023-09-12T01:55:27;12.3;;;7.2;;
24867;SDS011;12941;48.698;9.310;2023-09-12T01:56:27;12.3;;;7.2;;
24867;SDS011;12941;48.698;9.310;2023-09-12T01:57:32;10.6;;;7;;
24867;SDS011;12941;48.698;9.310;2023-09-12T01:58:32;10.6;;;7;;
24867;SDS011;12941;48.698;9.310;2023-09-12T01:59:32;10.6;;;7;;
24867;SDS011;12941;48.698;9.310;2023-09-12T02:00:37;10.6;;;7;;
24867;SDS011;12941;48.698;9.310;2023-09-12T02:01:37;10.6;;;7;;
24867;SDS011;12941;48.698;9.310;2023-09-12T02:02:42;9.6;;;7.3;;
24867;SDS011;12941;48.698;9.310;2023-09-12T02:03:42;9.6;;;7.3;;
24867;SDS011;12941;48.698;9.310;2023-09-12T02:04:50;9.6;;;7.3;;
24867;SDS011;12941;48.698;9.310;2023-09-12T02:05:52;9.6;;;7.3;;
24867;SDS011;12941;48.698;9.310;2023-09-12T02:06:52;9.6;;;7.3;;
24867;SDS011;12941;48.698;9.310;2023-09-12T02:07:52;11.5;;;7.2;;
24867;SDS011;12941;48.698;9.310;2023-09-12T02:08:52;11.5;;;7.2;;
24867;SDS011;12941;48.698;9.310;2023-09-12T02:09:52;11.5;;;7.2;;
24867;SDS011;12941;48.698;9.310;2023-09-12T02:10:57;11.5;;;7.2;;
24867;SDS011;12941;48.698;9.310;2023-09-12T02:11:57;11.5;;;7.2;;
24867;SDS011;12941;48.698;9.310;2023-09-12T02:13:02;12.3;;;7.3;;
24867;SDS011;12941;48.698;9.310;2023-09-12T02:14:07;12.3;;;7.3;;
24867;SDS011;12941;48.698;9.310;2023-09-12T02:15:08;12.3;;;7.3;;
24867;SDS011;12941;48.698;9.310;2023-09-12T02:16:13;12.3;;;7.3;;
24867;SDS011;12941;48.698;9.310;2023-09-12T02:17:12;10.2;;;7;;
24867;SDS011;12941;48.698;9.310;2023-09-12T02:18:17;10.2;;;7;;
24867;SDS011;12941;48.698;9.310;2023-09-12T02:19:22;10.2;;;7;;
24867;SDS011;12941;48.698;9.310;2023-09-12T02:20:27;10.2;;;7;;
24867;SDS011;12941;48.698;9.310;2023-09-12T02:21:27;10.2;;;7;;
24867;SDS011;12941;48.698;9.310;2023-09-12T02:22:32;10.8;;;7.6;;
24867;SDS011;12941;48.698;9.310;2023-09-12T02:23:32;10.8;;;7.6;;
24867;SDS011;12941;48.698;9.310;2023-09-12T02:24:37;10.8;;;7.6;;
24867;SDS011;12941;48.698;9.310;2023-09-12T02:25:37;10.8;;;7.6;;
24867;SDS011;12941;48.698;9.310;2023-09-12T02:26:37;10.8;;;7.6;;
24867;SDS011;12941;48.698;9.310;2023-09-12T02:27:42;9.9;;;7.5;;
24867;SDS011;12941;48.698;9.310;2023-09-12T02:28:47;9.9;;;7.5;;
24867;SDS011;12941;48.698;9.310;2023-09-12T02:29:47;9.9;;;7.5;;
24867;SDS011;12941;48.698;9.310;2023-09-12T02:30:52;9.9;;;7.5;;
24867;SDS011;12941;48.698;9.310;2023-09-12T02:31:52;9.9;;;7.5;;
24867;SDS011;12941;48.698;9.310;2023-09-12T02:32:57;14.8;;;7.7;;
24867;SDS011;12941;48.698;9.310;2023-09-12T02:33:57;14.8;;;7.7;;
24867;SDS011;12941;48.698;9.310;2023-09-12T02:34:57;14.8;;;7.7;;
24867;SDS011;12941;48.698;9.310;2023-09-12T02:36:02;14.8;;;7.7;;
24867;SDS011;12941;48.698;9.310;2023-09-12T02:37:02;14.8;;;7.7;;
24867;SDS011;12941;48.698;9.310;2023-09-12T02:38:07;11.5;;;7.7;;
24867;SDS011;12941;48.698;9.310;2023-09-12T02:39:07;11.5;;;7.7;;
24867;SDS011;12941;48.698;9.310;2023-09-12T02:40:08;11.5;;;7.7;;
24867;SDS011;12941;48.698;9.310;2023-09-12T02:41:12;11.5;;;7.7;;
24867;SDS011;12941;48.698;9.310;2023-09-12T02:42:12;9.8;;;7.6;;
24867;SDS011;12941;48.698;9.310;2023-09-12T02:43:17;9.8;;;7.6;;
24867;SDS011;12941;48.698;9.310;2023-09-12T02:44:17;9.8;;;7.6;;
24867;SDS011;12941;48.698;9.310;2023-09-12T02:45:17;9.8;;;7.6;;
24867;SDS011;12941;48.698;9.310;2023-09-12T02:46:17;9.8;;;7.6;;
24867;SDS011;12941;48.698;9.310;2023-09-12T02:47:17;12.9;;;7.6;;
24867;SDS011;12941;48.698;9.310;2023-09-12T02:48:17;12.9;;;7.6;;
24867;SDS011;12941;48.698;9.310;2023-09-12T02:49:22;12.9;;;7.6;;
24867;SDS011;12941;48.698;9.310;2023-09-12T02:50:27;12.9;;;7.6;;
24867;SDS011;12941;48.698;9.310;2023-09-12T02:51:33;12.9;;;7.6;;
24867;SDS011;12941;48.698;9.310;2023-09-12T02:52:37;11;;;7.4;;
24867;SDS011;12941;48.698;9.310;2023-09-12T02:53:42;11;;;7.4;;
24867;SDS011;12941;48.698;9.310;2023-09-12T02:54:42;11;;;7.4;;
24867;SDS011;12941;48.698;9.310;2023-09-12T02:55:42;11;;;7.4;;
24867;SDS011;12941;48.698;9.310;2023-09-12T02:56:47;11;;;7.4;;
24867;SDS011;12941;48.698;9.310;2023-09-12T02:57:52;8.9;;;6.9;;
24867;SDS011;12941;48.698;9.310;2023-09-12T02:58:52;8.9;;;6.9;;
24867;SDS011;12941;48.698;9.310;2023-09-12T02:59:58;8.9;;;6.9;;
24867;SDS011;12941;48.698;9.310;2023-09-12T03:01:02;8.9;;;6.9;;
24867;SDS011;12941;48.698;9.310;2023-09-12T03:02:03;8.9;;;6.9;;
24867;SDS011;12941;48.698;9.310;2023-09-12T03:03:03;10.6;;;7.1;;
24867;SDS011;12941;48.698;9.310;2023-09-12T03:04:07;10.6;;;7.1;;
24867;SDS011;12941;48.698;9.310;2023-09-12T03:05:08;10.6;;;7.1;;
24867;SDS011;12941;48.698;9.310;2023-09-12T03:06:13;10.6;;;7.1;;
24867;SDS011;12941;48.698;9.310;2023-09-12T03:07:13;13.3;;;7.8;;
24867;SDS011;12941;48.698;9.310;2023-09-12T03:08:18;13.3;;;7.8;;
24867;SDS011;12941;48.698;9.310;2023-09-12T03:09:18;13.3;;;7.8;;
24867;SDS011;12941;48.698;9.310;2023-09-12T03:10:23;13.3;;;7.8;;
24867;SDS011;12941;48.698;9.310;2023-09-12T03:11:28;13.3;;;7.8;;
24867;SDS011;12941;48.698;9.310;2023-09-12T03:12:28;9.9;;;7;;
24867;SDS011;12941;48.698;9.310;2023-09-12T03:13:33;9.9;;;7;;
24867;SDS011;12941;48.698;9.310;2023-09-12T03:14:33;9.9;;;7;;
24867;SDS011;12941;48.698;9.310;2023-09-12T03:15:35;9.9;;;7;;
24867;SDS011;12941;48.698;9.310;2023-09-12T03:16:38;9.9;;;7;;
24867;SDS011;12941;48.698;9.310;2023-09-12T03:17:38;10.4;;;7.5;;
24867;SDS011;12941;48.698;9.310;2023-09-12T03:18:38;10.4;;;7.5;;
24867;SDS011;12941;48.698;9.310;2023-09-12T03:19:43;10.4;;;7.5;;
24867;SDS011;12941;48.698;9.310;2023-09-12T03:20:48;10.4;;;7.5;;
24867;SDS011;12941;48.698;9.310;2023-09-12T03:21:53;10.4;;;7.5;;
24867;SDS011;12941;48.698;9.310;2023-09-12T03:22:58;12;;;7.5;;
24867;SDS011;12941;48.698;9.310;2023-09-12T03:24:03;12;;;7.5;;
24867;SDS011;12941;48.698;9.310;2023-09-12T03:25:08;12;;;7.5;;
24867;SDS011;12941;48.698;9.310;2023-09-12T03:26:08;12;;;7.5;;
24867;SDS011;12941;48.698;9.310;2023-09-12T03:27:13;10.1;;;7.9;;
24867;SDS011;12941;48.698;9.310;2023-09-12T03:28:13;10.1;;;7.9;;
24867;SDS011;12941;48.698;9.310;2023-09-12T03:29:13;10.1;;;7.9;;
24867;SDS011;12941;48.698;9.310;2023-09-12T03:30:19;10.1;;;7.9;;
24867;SDS011;12941;48.698;9.310;2023-09-12T03:31:23;10.1;;;7.9;;
24867;SDS011;12941;48.698;9.310;2023-09-12T03:32:23;12.8;;;7.7;;
24867;SDS011;12941;48.698;9.310;2023-09-12T03:33:28;12.8;;;7.7;;
24867;SDS011;12941;48.698;9.310;2023-09-12T03:34:33;12.8;;;7.7;;
24867;SDS011;12941;48.698;9.310;2023-09-12T03:35:33;12.8;;;7.7;;
24867;SDS011;12941;48.698;9.310;2023-09-12T03:36:33;12.8;;;7.7;;
24867;SDS011;12941;48.698;9.310;2023-09-12T03:37:33;10.4;;;7.9;;
24867;SDS011;12941;48.698;9.310;2023-09-12T03:38:38;10.4;;;7.9;;
24867;SDS011;12941;48.698;9.310;2023-09-12T03:39:38;10.4;;;7.9;;
24867;SDS011;12941;48.698;9.310;2023-09-12T03:40:38;10.4;;;7.9;;
24867;SDS011;12941;48.698;9.310;2023-09-12T03:41:43;10.4;;;7.9;;
24867;SDS011;12941;48.698;9.310;2023-09-12T03:42:48;9.4;;;7.9;;
24867;SDS011;12941;48.698;9.310;2023-09-12T03:43:48;9.4;;;7.9;;
24867;SDS011;12941;48.698;9.310;2023-09-12T03:44:48;9.4;;;7.9;;
24867;SDS011;12941;48.698;9.310;2023-09-12T03:45:48;9.4;;;7.9;;
24867;SDS011;12941;48.698;9.310;2023-09-12T03:46:53;9.4;;;7.9;;
24867;SDS011;12941;48.698;9.310;2023-09-12T03:47:53;11.5;;;8;;
24867;SDS011;12941;48.698;9.310;2023-09-12T03:48:58;11.5;;;8;;
24867;SDS011;12941;48.698;9.310;2023-09-12T03:49:58;11.5;;;8;;
24867;SDS011;12941;48.698;9.310;2023-09-12T03:50:58;11.5;;;8;;
24867;SDS011;12941;48.698;9.310;2023-09-12T03:51:58;11.5;;;8;;
24867;SDS011;12941;48.698;9.310;2023-09-12T03:53:03;11.5;;;8.1;;
24867;SDS011;12941;48.698;9.310;2023-09-12T03:54:03;11.5;;;8.1;;
24867;SDS011;12941;48.698;9.310;2023-09-12T03:55:08;11.5;;;8.1;;
24867;SDS011;12941;48.698;9.310;2023-09-12T03:56:08;11.5;;;8.1;;
24867;SDS011;12941;48.698;9.310;2023-09-12T03:57:13;9.5;;;7.8;;
24867;SDS011;12941;48.698;9.310;2023-09-12T03:58:13;9.5;;;7.8;;
24867;SDS011;12941;48.698;9.310;2023-09-12T03:59:18;9.5;;;7.8;;
24867;SDS011;12941;48.698;9.310;2023-09-12T04:00:23;9.5;;;7.8;;
24867;SDS011;12941;48.698;9.310;2023-09-12T04:01:28;9.5;;;7.8;;
24867;SDS011;12941;48.698;9.310;2023-09-12T04:02:28;10.5;;;8.2;;
24867;SDS011;12941;48.698;9.310;2023-09-12T04:03:33;10.5;;;8.2;;
24867;SDS011;12941;48.698;9.310;2023-09-12T04:04:38;10.5;;;8.2;;
24867;SDS011;12941;48.698;9.310;2023-09-12T04:05:44;10.5;;;8.2;;
24867;SDS011;12941;48.698;9.310;2023-09-12T04:06:43;10.5;;;8.2;;
24867;SDS011;12941;48.698;9.310;2023-09-12T04:07:48;8.5;;;7.5;;
24867;SDS011;12941;48.698;9.310;2023-09-12T04:08:48;8.5;;;7.5;;
24867;SDS011;12941;48.698;9.310;2023-09-12T04:09:53;8.5;;;7.5;;
24867;SDS011;12941;48.698;9.310;2023-09-12T04:10:53;8.5;;;7.5;;
24867;SDS011;12941;48.698;9.310;2023-09-12T04:11:58;8.5;;;7.5;;
24867;SDS011;12941;48.698;9.310;2023-09-12T04:13:03;10.5;;;7.8;;
24867;SDS011;12941;48.698;9.310;2023-09-12T04:14:08;10.5;;;7.8;;
24867;SDS011;12941;48.698;9.310;2023-09-12T04:15:08;10.5;;;7.8;;
24867;SDS011;12941;48.698;9.310;2023-09-12T04:16:13;10.5;;;7.8;;
24867;SDS011;12941;48.698;9.310;2023-09-12T04:17:18;10.5;;;7.8;;
24867;SDS011;12941;48.698;9.310;2023-09-12T04:18:18;10.5;;;7.8;;
24867;SDS011;12941;48.698;9.310;2023-09-12T04:19:24;10.5;;;7.8;;
24867;SDS011;12941;48.698;9.310;2023-09-12T04:20:23;10.5;;;7.8;;
24867;SDS011;12941;48.698;9.310;2023-09-12T04:21:28;10.5;;;7.8;;
24867;SDS011;12941;48.698;9.310;2023-09-12T04:22:28;11.8;;;8.5;;
24867;SDS011;12941;48.698;9.310;2023-09-12T04:23:34;11.8;;;8.5;;
24867;SDS011;12941;48.698;9.310;2023-09-12T04:24:38;11.8;;;8.5;;
24867;SDS011;12941;48.698;9.310;2023-09-12T04:25:41;11.8;;;8.5;;
24867;SDS011;12941;48.698;9.310;2023-09-12T04:26:43;11.8;;;8.5;;
24867;SDS011;12941;48.698;9.310;2023-09-12T04:27:48;11.3;;;7.6;;
24867;SDS011;12941;48.698;9.310;2023-09-12T04:28:48;11.3;;;7.6;;
24867;SDS011;12941;48.698;9.310;2023-09-12T04:29:53;11.3;;;7.6;;
24867;SDS011;12941;48.698;9.310;2023-09-12T04:31:00;11.3;;;7.6;;
24867;SDS011;12941;48.698;9.310;2023-09-12T04:31:58;11.3;;;7.6;;
24867;SDS011;12941;48.698;9.310;2023-09-12T04:33:04;12.5;;;8;;
24867;SDS011;12941;48.698;9.310;2023-09-12T04:34:08;12.5;;;8;;
24867;SDS011;12941;48.698;9.310;2023-09-12T04:35:08;12.5;;;8;;
24867;SDS011;12941;48.698;9.310;2023-09-12T04:36:13;12.5;;;8;;
24867;SDS011;12941;48.698;9.310;2023-09-12T04:37:13;12.7;;;7.7;;
24867;SDS011;12941;48.698;9.310;2023-09-12T04:38:18;12.7;;;7.7;;
24867;SDS011;12941;48.698;9.310;2023-09-12T04:39:23;12.7;;;7.7;;
24867;SDS011;12941;48.698;9.310;2023-09-12T04:40:28;12.7;;;7.7;;
24867;SDS011;12941;48.698;9.310;2023-09-12T04:41:28;12.7;;;7.7;;
24867;SDS011;12941;48.698;9.310;2023-09-12T04:42:33;10.6;;;7.5;;
24867;SDS011;12941;48.698;9.310;2023-09-12T04:43:33;10.6;;;7.5;;
24867;SDS011;12941;48.698;9.310;2023-09-12T04:44:34;10.6;;;7.5;;
24867;SDS011;12941;48.698;9.310;2023-09-12T04:45:33;10.6;;;7.5;;
24867;SDS011;12941;48.698;9.310;2023-09-12T04:46:33;10.6;;;7.5;;
24867;SDS011;12941;48.698;9.310;2023-09-12T04:47:34;10.9;;;7.8;;
24867;SDS011;12941;48.698;9.310;2023-09-12T04:48:38;10.9;;;7.8;;
24867;SDS011;12941;48.698;9.310;2023-09-12T04:49:39;10.9;;;7.8;;
24867;SDS011;12941;48.698;9.310;2023-09-12T04:50:43;10.9;;;7.8;;
24867;SDS011;12941;48.698;9.310;2023-09-12T04:51:44;10.9;;;7.8;;
24867;SDS011;12941;48.698;9.310;2023-09-12T04:52:44;14.1;;;7.6;;
24867;SDS011;12941;48.698;9.310;2023-09-12T04:53:48;14.1;;;7.6;;
24867;SDS011;12941;48.698;9.310;2023-09-12T04:54:49;14.1;;;7.6;;
24867;SDS011;12941;48.698;9.310;2023-09-12T04:55:53;14.1;;;7.6;;
24867;SDS011;12941;48.698;9.310;2023-09-12T04:56:54;14.1;;;7.6;;
24867;SDS011;12941;48.698;9.310;2023-09-12T04:57:54;11.7;;;7.5;;
24867;SDS011;12941;48.698;9.310;2023-09-12T04:58:59;11.7;;;7.5;;
24867;SDS011;12941;48.698;9.310;2023-09-12T04:59:59;11.7;;;7.5;;
24867;SDS011;12941;48.698;9.310;2023-09-12T05:01:04;11.7;;;7.5;;
24867;SDS011;12941;48.698;9.310;2023-09-12T05:02:09;10.5;;;7.4;;
24867;SDS011;12941;48.698;9.310;2023-09-12T05:03:09;10.4;;;7.4;;
24867;SDS011;12941;48.698;9.310;2023-09-12T05:04:09;10.4;;;7.4;;
24867;SDS011;12941;48.698;9.310;2023-09-12T05:05:09;10.4;;;7.4;;
24867;SDS011;12941;48.698;9.310;2023-09-12T05:06:14;10.4;;;7.4;;
24867;SDS011;12941;48.698;9.310;2023-09-12T05:07:14;10.2;;;7.8;;
24867;SDS011;12941;48.698;9.310;2023-09-12T05:08:19;10.2;;;7.8;;
24867;SDS011;12941;48.698;9.310;2023-09-12T05:09:19;10.2;;;7.8;;
24867;SDS011;12941;48.698;9.310;2023-09-12T05:10:19;10.2;;;7.8;;
24867;SDS011;12941;48.698;9.310;2023-09-12T05:11:24;10.2;;;7.8;;
24867;SDS011;12941;48.698;9.310;2023-09-12T05:12:24;11.3;;;7.8;;
24867;SDS011;12941;48.698;9.310;2023-09-12T05:13:24;11.3;;;7.8;;
24867;SDS011;12941;48.698;9.310;2023-09-12T05:14:24;11.3;;;7.8;;
24867;SDS011;12941;48.698;9.310;2023-09-12T05:15:24;11.3;;;7.8;;
24867;SDS011;12941;48.698;9.310;2023-09-12T05:16:24;11.3;;;7.8;;
24867;SDS011;12941;48.698;9.310;2023-09-12T05:17:24;14;;;8.3;;
24867;SDS011;12941;48.698;9.310;2023-09-12T05:18:29;14;;;8.3;;
24867;SDS011;12941;48.698;9.310;2023-09-12T05:19:29;14;;;8.3;;
24867;SDS011;12941;48.698;9.310;2023-09-12T05:20:34;14;;;8.3;;
24867;SDS011;12941;48.698;9.310;2023-09-12T05:21:39;14;;;8.3;;
24867;SDS011;12941;48.698;9.310;2023-09-12T05:22:39;10.7;;;7.2;;
24867;SDS011;12941;48.698;9.310;2023-09-12T05:23:39;10.7;;;7.2;;
24867;SDS011;12941;48.698;9.310;2023-09-12T05:24:44;10.7;;;7.2;;
24867;SDS011;12941;48.698;9.310;2023-09-12T05:25:49;10.7;;;7.2;;
24867;SDS011;12941;48.698;9.310;2023-09-12T05:26:49;10.7;;;7.2;;
24867;SDS011;12941;48.698;9.310;2023-09-12T05:27:49;11.6;;;8.2;;
24867;SDS011;12941;48.698;9.310;2023-09-12T05:28:49;11.6;;;8.2;;
24867;SDS011;12941;48.698;9.310;2023-09-12T05:29:54;11.6;;;8.2;;
24867;SDS011;12941;48.698;9.310;2023-09-12T05:30:54;11.6;;;8.2;;
24867;SDS011;12941;48.698;9.310;2023-09-12T05:31:59;11.6;;;8.2;;
24867;SDS011;12941;48.698;9.310;2023-09-12T05:33:04;11.7;;;8.3;;
24867;SDS011;12941;48.698;9.310;2023-09-12T05:34:04;11.7;;;8.3;;
24867;SDS011;12941;48.698;9.310;2023-09-12T05:35:09;11.7;;;8.3;;
24867;SDS011;12941;48.698;9.310;2023-09-12T05:36:09;11.7;;;8.3;;
24867;SDS011;12941;48.698;9.310;2023-09-12T05:37:09;11.6;;;8.1;;
24867;SDS011;12941;48.698;9.310;2023-09-12T05:38:09;11.6;;;8;;
24867;SDS011;12941;48.698;9.310;2023-09-12T05:39:14;11.6;;;8;;
24867;SDS011;12941;48.698;9.310;2023-09-12T05:40:14;11.6;;;8;;
24867;SDS011;12941;48.698;9.310;2023-09-12T05:41:14;11.6;;;8;;
24867;SDS011;12941;48.698;9.310;2023-09-12T05:42:19;10.3;;;8.5;;
24867;SDS011;12941;48.698;9.310;2023-09-12T05:43:19;10.3;;;8.5;;
24867;SDS011;12941;48.698;9.310;2023-09-12T05:44:24;10.3;;;8.5;;
24867;SDS011;12941;48.698;9.310;2023-09-12T05:45:24;10.3;;;8.5;;
24867;SDS011;12941;48.698;9.310;2023-09-12T05:46:29;10.3;;;8.5;;
24867;SDS011;12941;48.698;9.310;2023-09-12T05:47:29;15.1;;;8.5;;
24867;SDS011;12941;48.698;9.310;2023-09-12T05:48:34;15.1;;;8.5;;
24867;SDS011;12941;48.698;9.310;2023-09-12T05:49:34;15.1;;;8.5;;
24867;SDS011;12941;48.698;9.310;2023-09-12T05:50:34;15.1;;;8.5;;
24867;SDS011;12941;48.698;9.310;2023-09-12T05:51:39;15.1;;;8.5;;
24867;SDS011;12941;48.698;9.310;2023-09-12T05:52:44;12.9;;;8.2;;
24867;SDS011;12941;48.698;9.310;2023-09-12T05:53:44;12.9;;;8.2;;
24867;SDS011;12941;48.698;9.310;2023-09-12T05:54:49;12.9;;;8.2;;
24867;SDS011;12941;48.698;9.310;2023-09-12T05:55:49;12.9;;;8.2;;
24867;SDS011;12941;48.698;9.310;2023-09-12T05:56:54;12.9;;;8.2;;
24867;SDS011;12941;48.698;9.310;2023-09-12T05:57:59;13.6;;;7.6;;
24867;SDS011;12941;48.698;9.310;2023-09-12T05:59:05;13.6;;;7.6;;
24867;SDS011;12941;48.698;9.310;2023-09-12T06:00:10;13.6;;;7.6;;
24867;SDS011;12941;48.698;9.310;2023-09-12T06:01:14;13.6;;;7.6;;
24867;SDS011;12941;48.698;9.310;2023-09-12T06:02:14;12;;;8.5;;
24867;SDS011;12941;48.698;9.310;2023-09-12T06:03:21;12;;;8.5;;
24867;SDS011;12941;48.698;9.310;2023-09-12T06:04:24;12;;;8.5;;
24867;SDS011;12941;48.698;9.310;2023-09-12T06:05:29;12;;;8.5;;
24867;SDS011;12941;48.698;9.310;2023-09-12T06:06:29;12;;;8.5;;
24867;SDS011;12941;48.698;9.310;2023-09-12T06:07:35;11.2;;;8.3;;
24867;SDS011;12941;48.698;9.310;2023-09-12T06:08:39;11.2;;;8.3;;
24867;SDS011;12941;48.698;9.310;2023-09-12T06:09:40;11.2;;;8.3;;
24867;SDS011;12941;48.698;9.310;2023-09-12T06:10:44;11.2;;;8.3;;
24867;SDS011;12941;48.698;9.310;2023-09-12T06:11:44;11.2;;;8.3;;
24867;SDS011;12941;48.698;9.310;2023-09-12T06:12:44;12;;;8.5;;
24867;SDS011;12941;48.698;9.310;2023-09-12T06:13:50;12;;;8.5;;
24867;SDS011;12941;48.698;9.310;2023-09-12T06:14:54;12;;;8.5;;
24867;SDS011;12941;48.698;9.310;2023-09-12T06:16:00;12;;;8.5;;
24867;SDS011;12941;48.698;9.310;2023-09-12T06:17:04;12;;;8.5;;
24867;SDS011;12941;48.698;9.310;2023-09-12T06:18:04;12.3;;;8.3;;
24867;SDS011;12941;48.698;9.310;2023-09-12T06:19:10;12.3;;;8.3;;
24867;SDS011;12941;48.698;9.310;2023-09-12T06:20:14;12.3;;;8.3;;
24867;SDS011;12941;48.698;9.310;2023-09-12T06:21:15;12.3;;;8.3;;
24867;SDS011;12941;48.698;9.310;2023-09-12T06:22:19;13.4;;;8.2;;
24867;SDS011;12941;48.698;9.310;2023-09-12T06:23:20;13.4;;;8.2;;
24867;SDS011;12941;48.698;9.310;2023-09-12T06:24:25;13.4;;;8.2;;
24867;SDS011;12941;48.698;9.310;2023-09-12T06:25:25;13.4;;;8.2;;
24867;SDS011;12941;48.698;9.310;2023-09-12T06:26:30;13.4;;;8.2;;